Time;durP1;ratioP1;P1;durP2;ratioP2;P2;SDS_P1;SDS_P2;PMS_P1;PMS_P2;Temp;Humidity;BMP_temperature;BMP_pressure;BME280_temperature;BME280_humidity;BME280_pressure;Samples;Min_cycle;Max_cycle;Signal;HPM_P1;HPM_P2
2022/01/02 00:00:30;;;;;;;23.85;16.45;;;;;;;8.86;97.68;97291.67;1725970;81;20953;-81
2022/01/02 00:03:04;;;;;;;30.97;18.25;;;;;;;8.82;97.65;97291.64;1736656;82;21027;-81
2022/01/02 00:05:34;;;;;;;23.60;14.50;;;;;;;8.82;97.65;97290.34;1731234;82;20945;-82
2022/01/02 00:08:06;;;;;;;32.70;17.55;;;;;;;8.85;97.67;97291.34;1733613;82;20942;-81
2022/01/02 00:10:39;;;;;;;34.98;20.25;;;;;;;8.89;97.81;97295.26;1721769;82;21055;-82
2022/01/02 00:13:06;;;;;;;28.05;16.90;;;;;;;8.89;97.79;97295.73;1706840;82;21001;-81
2022/01/02 00:15:33;;;;;;;25.20;15.85;;;;;;;8.89;97.92;97289.26;1745707;81;20991;-82
2022/01/02 00:18:08;;;;;;;158.03;71.67;;;;;;;8.86;97.70;97281.79;1739377;82;21333;-81
2022/01/02 00:20:37;;;;;;;24.80;14.90;;;;;;;8.82;97.48;97283.05;1740266;82;22018;-81
2022/01/02 00:23:06;;;;;;;21.37;15.15;;;;;;;8.79;97.58;97278.98;1729097;82;21020;-81
2022/01/02 00:25:37;;;;;;;55.40;27.93;;;;;;;8.77;97.69;97272.30;1740664;82;20999;-81
2022/01/02 00:28:01;;;;;;;26.82;16.00;;;;;;;8.73;97.63;97272.60;1725339;81;20979;-81
2022/01/02 00:30:27;;;;;;;29.15;17.48;;;;;;;8.73;98.01;97267.42;1739918;81;22222;-81
2022/01/02 00:32:53;;;;;;;29.85;16.87;;;;;;;8.75;97.89;97261.27;1747670;82;20955;-81
2022/01/02 00:35:18;;;;;;;17.77;11.97;;;;;;;8.77;97.87;97271.00;1738286;82;20987;-81
2022/01/02 00:37:44;;;;;;;23.02;13.98;;;;;;;8.78;98.00;97273.44;1732224;82;22120;-81
2022/01/02 00:40:10;;;;;;;15.85;11.48;;;;;;;8.79;97.90;97271.22;1734658;82;20990;-81
2022/01/02 00:42:38;;;;;;;16.65;10.72;;;;;;;8.81;98.01;97276.25;1710855;83;21012;-81
2022/01/02 00:45:09;;;;;;;17.23;10.60;;;;;;;8.83;98.10;97275.61;1742354;82;20956;-81
2022/01/02 00:47:52;;;;;;;15.25;9.60;;;;;;;8.82;97.88;97272.20;1727656;81;21553;-81
2022/01/02 00:50:33;;;;;;;12.75;8.38;;;;;;;8.83;97.99;97269.13;1740637;82;20997;-82
2022/01/02 00:52:58;;;;;;;16.62;9.65;;;;;;;8.86;97.95;97276.60;1737456;81;21024;-81
2022/01/02 00:55:24;;;;;;;15.43;9.25;;;;;;;8.83;97.32;97275.61;1737395;82;20963;-81
2022/01/02 00:58:00;;;;;;;13.28;9.78;;;;;;;8.81;97.57;97271.06;1729513;81;20995;-81
2022/01/02 01:00:26;;;;;;;12.03;8.23;;;;;;;8.83;97.90;97273.83;1740178;82;21327;-81
2022/01/02 01:02:54;;;;;;;11.90;7.90;;;;;;;8.84;97.88;97270.76;1736644;81;21011;-81
2022/01/02 01:05:26;;;;;;;14.25;7.80;;;;;;;8.82;97.85;97268.31;1741178;81;21024;-81
2022/01/02 01:07:54;;;;;;;11.83;7.33;;;;;;;8.83;97.80;97269.13;1738760;81;21051;-81
2022/01/02 01:10:22;;;;;;;8.80;6.20;;;;;;;8.82;97.79;97257.14;1707095;81;22021;-81
2022/01/02 01:12:53;;;;;;;12.03;6.40;;;;;;;8.82;97.62;97250.18;1733513;81;21063;-81
2022/01/02 01:15:21;;;;;;;10.25;6.95;;;;;;;8.82;97.47;97250.66;1726850;81;21119;-81
2022/01/02 01:17:47;;;;;;;8.90;6.67;;;;;;;8.83;97.54;97248.41;1738644;81;21056;-81
2022/01/02 01:20:13;;;;;;;9.98;6.00;;;;;;;8.84;97.47;97243.55;1727622;81;20971;-81
2022/01/02 01:22:41;;;;;;;8.58;6.25;;;;;;;8.85;97.54;97235.63;1736115;81;21106;-81
2022/01/02 01:25:13;;;;;;;9.70;6.50;;;;;;;8.88;97.46;97230.61;1734006;81;21028;-81
2022/01/02 01:27:36;;;;;;;7.40;5.70;;;;;;;8.87;97.35;97230.28;1726567;81;21044;-81
2022/01/02 01:30:03;;;;;;;8.63;6.20;;;;;;;8.84;97.30;97227.52;1726887;81;21015;-81
2022/01/02 01:32:29;;;;;;;10.40;5.75;;;;;;;8.82;97.44;97232.52;1714457;81;20995;-81
2022/01/02 01:34:55;;;;;;;8.38;4.67;;;;;;;8.80;97.54;97233.97;1733050;81;22009;-81
2022/01/02 01:37:22;;;;;;;8.60;4.55;;;;;;;8.83;97.69;97223.78;1731969;81;20997;-81
2022/01/02 01:39:48;;;;;;;8.18;5.25;;;;;;;8.82;97.38;97219.56;1729573;81;21672;-81
2022/01/02 01:42:14;;;;;;;9.38;4.80;;;;;;;8.87;97.37;97219.44;1737111;81;21055;-81
2022/01/02 01:47:14;;;;;;;6.17;4.65;;;;;;;8.86;97.09;97209.22;1729711;81;21727;-81
2022/01/02 01:49:40;;;;;;;10.03;6.45;;;;;;;8.83;97.09;97204.34;1739203;81;21006;-81
2022/01/02 01:52:06;;;;;;;7.60;4.55;;;;;;;8.79;97.18;97203.84;1736632;81;21018;-81
2022/01/02 01:54:32;;;;;;;7.15;4.25;;;;;;;8.79;97.24;97199.95;1738919;81;21083;-81
2022/01/02 01:56:57;;;;;;;9.08;5.03;;;;;;;8.79;97.17;97207.73;1726945;81;21487;-82
2022/01/02 01:59:23;;;;;;;7.85;4.28;;;;;;;8.79;97.15;97205.13;1739743;81;21019;-81
2022/01/02 02:01:49;;;;;;;7.85;3.92;;;;;;;8.79;97.20;97203.03;1739003;81;20982;-81
2022/01/02 02:04:15;;;;;;;5.17;3.27;;;;;;;8.78;97.10;97204.77;1735484;81;21477;-81
2022/01/02 02:06:43;;;;;;;7.67;3.35;;;;;;;8.80;97.08;97203.36;1736494;81;21034;-81
2022/01/02 02:09:08;;;;;;;6.20;2.98;;;;;;;8.80;96.93;97201.58;1731843;81;20999;-81
2022/01/02 02:11:38;;;;;;;4.65;2.80;;;;;;;8.78;97.08;97200.08;1737951;81;20999;-81
2022/01/02 02:14:06;;;;;;;5.08;2.50;;;;;;;8.78;97.18;97189.71;1736770;81;21406;-81
2022/01/02 02:16:34;;;;;;;14.05;6.03;;;;;;;8.76;97.07;97189.86;1729577;81;21008;-81
2022/01/02 02:19:00;;;;;;;3.80;2.50;;;;;;;8.72;97.03;97189.84;1729584;81;20990;-81
2022/01/02 02:21:28;;;;;;;5.95;3.02;;;;;;;8.70;97.02;97180.11;1733910;81;21004;-81
2022/01/02 02:23:55;;;;;;;4.95;2.30;;;;;;;8.69;97.11;97185.77;1735031;81;21109;-81
2022/01/02 02:26:21;;;;;;;5.47;2.77;;;;;;;8.66;97.06;97180.90;1738053;81;21023;-81
2022/01/02 02:28:47;;;;;;;4.58;2.62;;;;;;;8.66;97.14;97173.61;1719715;81;22355;-81
2022/01/02 02:31:12;;;;;;;3.47;2.75;;;;;;;8.66;97.16;97171.02;1740437;81;20991;-81
2022/01/02 02:33:38;;;;;;;5.87;2.92;;;;;;;8.67;97.25;97166.17;1733912;81;21054;-81
2022/01/02 02:36:04;;;;;;;10.32;5.87;;;;;;;8.68;97.24;97160.02;1740962;81;21324;-81
2022/01/02 02:38:32;;;;;;;4.97;3.00;;;;;;;8.67;97.19;97157.10;1725917;81;21059;-81
2022/01/02 02:40:57;;;;;;;5.72;3.20;;;;;;;8.69;97.29;97149.98;1706105;82;21000;-81
2022/01/02 02:51:30;;;;;;;4.35;3.33;;;;;;;8.68;97.37;97136.22;1727916;81;21028;-81
2022/01/02 02:53:54;;;;;;;8.68;4.37;;;;;;;8.69;97.34;97143.51;1733541;81;21060;-81
2022/01/02 02:56:23;;;;;;;5.75;3.67;;;;;;;8.67;97.37;97140.27;1729861;81;21316;-81
2022/01/02 02:58:52;;;;;;;6.92;4.20;;;;;;;8.65;97.43;97133.94;1736984;81;21023;-81
2022/01/02 03:01:19;;;;;;;4.37;3.35;;;;;;;8.64;97.36;97138.79;1727678;81;21000;-81
2022/01/02 03:03:45;;;;;;;7.87;3.70;;;;;;;8.62;97.20;97147.65;1738745;81;21014;-81
2022/01/02 03:06:12;;;;;;;6.05;3.27;;;;;;;8.60;97.23;97145.21;1723561;81;20988;-81
2022/01/02 03:08:38;;;;;;;7.72;3.80;;;;;;;8.59;97.21;97142.30;1708598;81;21062;-80
2022/01/02 03:11:06;;;;;;;7.62;2.92;;;;;;;8.56;97.04;97143.08;1731814;81;21073;-81
2022/01/02 03:13:31;;;;;;;3.92;2.75;;;;;;;8.55;97.27;97136.27;1740511;81;21107;-83
2022/01/02 03:15:57;;;;;;;5.42;2.62;;;;;;;8.54;97.11;97133.36;1736216;81;22124;-83
2022/01/02 03:18:23;;;;;;;4.72;3.10;;;;;;;8.54;97.05;97120.41;1738108;81;21110;-83
2022/01/02 03:20:49;;;;;;;7.83;4.25;;;;;;;8.53;97.15;97119.59;1732144;81;21083;-83
2022/01/02 03:23:14;;;;;;;7.20;4.22;;;;;;;8.55;96.90;97122.03;1733788;81;21386;-83
2022/01/02 03:25:40;;;;;;;4.45;2.62;;;;;;;8.52;96.85;97127.52;1737039;81;21006;-83
2022/01/02 03:28:06;;;;;;;3.58;2.87;;;;;;;8.50;97.08;97125.08;1738823;81;21289;-83
2022/01/02 03:30:32;;;;;;;4.20;2.40;;;;;;;8.49;97.18;97120.05;1736184;81;21449;-83
2022/01/02 03:32:57;;;;;;;8.20;4.00;;;;;;;8.50;97.11;97116.50;1728206;81;20991;-82
2022/01/02 03:35:24;;;;;;;5.70;3.20;;;;;;;8.50;96.85;97111.31;1707657;81;21020;-83
2022/01/02 03:37:51;;;;;;;4.65;2.40;;;;;;;8.51;96.85;97111.16;1730356;81;21379;-83
2022/01/02 03:40:16;;;;;;;8.40;3.27;;;;;;;8.51;96.41;97106.47;1741357;81;21470;-83
2022/01/02 03:42:42;;;;;;;4.37;3.00;;;;;;;8.49;96.10;97107.10;1738623;81;21044;-83
2022/01/02 03:45:09;;;;;;;2.80;2.25;;;;;;;8.46;96.16;97109.52;1732047;81;20952;-83
2022/01/02 03:47:35;;;;;;;9.28;4.05;;;;;;;8.45;96.54;97104.46;1733558;81;21046;-83
2022/01/02 03:50:03;;;;;;;23.02;9.70;;;;;;;8.45;96.12;97104.46;1741646;81;20975;-84
2022/01/02 03:52:29;;;;;;;18.05;7.58;;;;;;;8.44;95.98;97097.17;1745186;81;20987;-82
2022/01/02 03:54:55;;;;;;;3.33;1.72;;;;;;;8.41;95.92;97094.41;1739820;81;21461;-83
2022/01/02 03:57:20;;;;;;;2.95;2.45;;;;;;;8.42;95.72;97089.55;1738183;81;20968;-83
2022/01/02 03:59:46;;;;;;;3.30;2.83;;;;;;;8.45;96.04;97094.09;1740566;81;21004;-82
2022/01/02 04:02:13;;;;;;;15.53;7.28;;;;;;;8.46;95.78;97091.84;1739709;81;21047;-82
2022/01/02 04:04:39;;;;;;;15.83;6.28;;;;;;;8.45;95.35;97087.63;1741184;81;21032;-83
2022/01/02 04:07:04;;;;;;;24.70;9.05;;;;;;;8.47;95.41;97086.53;1709896;81;20979;-83
2022/01/02 04:09:30;;;;;;;16.42;7.28;;;;;;;8.49;94.80;97078.12;1741033;81;21430;-83
2022/01/02 04:11:56;;;;;;;8.58;3.55;;;;;;;8.53;94.64;97077.34;1736373;81;20996;-82
2022/01/02 04:14:22;;;;;;;10.60;4.45;;;;;;;8.55;94.65;97072.81;1744424;81;20991;-83
2022/01/02 04:16:48;;;;;;;9.30;4.47;;;;;;;8.56;94.22;97058.89;1739653;81;20960;-83
2022/01/02 04:19:14;;;;;;;5.83;3.22;;;;;;;8.57;94.26;97059.23;1737623;81;21015;-83
2022/01/02 04:21:39;;;;;;;137.70;55.35;;;;;;;8.54;93.89;97071.19;1715522;81;20972;-82
2022/01/02 04:24:05;;;;;;;13.93;7.17;;;;;;;8.52;93.74;97070.53;1741011;81;21393;-83
2022/01/02 04:26:31;;;;;;;8.08;4.22;;;;;;;8.51;93.83;97072.31;1675273;84;20976;-83
2022/01/02 04:28:57;;;;;;;5.12;2.00;;;;;;;8.54;93.62;97071.19;1744265;81;21032;-83
2022/01/02 04:31:23;;;;;;;12.50;5.92;;;;;;;8.56;93.66;97065.38;1738113;81;21307;-82
2022/01/02 04:33:48;;;;;;;3.25;1.98;;;;;;;8.55;93.21;97068.45;1743714;81;21035;-82
2022/01/02 04:36:14;;;;;;;1.98;1.67;;;;;;;8.55;93.36;97065.05;1740837;81;20960;-83
2022/01/02 04:38:42;;;;;;;3.00;1.50;;;;;;;8.52;93.64;97062.77;1743645;81;21070;-82
2022/01/02 04:41:08;;;;;;;3.17;1.67;;;;;;;8.48;93.30;97065.33;1709935;81;21070;-83
2022/01/02 04:43:34;;;;;;;4.55;2.55;;;;;;;8.42;92.93;97060.26;1736360;81;21449;-82
2022/01/02 04:46:00;;;;;;;3.80;2.40;;;;;;;8.37;93.08;97068.48;1739260;81;21026;-82
2022/01/02 04:48:26;;;;;;;2.60;1.75;;;;;;;8.36;92.79;97062.17;1737070;81;21147;-82
2022/01/02 04:50:51;;;;;;;4.55;2.40;;;;;;;8.30;92.71;97064.86;1732230;81;21059;-82
2022/01/02 04:53:19;;;;;;;2.40;1.80;;;;;;;8.21;92.18;97054.58;1733841;81;20988;-82
2022/01/02 04:55:45;;;;;;;2.50;1.77;;;;;;;8.15;92.19;97036.59;1732566;81;21111;-83
2022/01/02 04:58:11;;;;;;;3.10;1.85;;;;;;;8.12;91.58;97036.86;1736516;81;21079;-82
2022/01/02 05:00:37;;;;;;;1.90;1.50;;;;;;;8.11;91.96;97031.36;1738279;81;20996;-83
2022/01/02 05:03:02;;;;;;;3.50;2.05;;;;;;;8.06;91.35;97028.41;1713734;81;21022;-82
2022/01/02 05:05:28;;;;;;;9.18;5.70;;;;;;;8.01;91.77;97017.71;1740068;81;21369;-82
2022/01/02 05:07:54;;;;;;;2.58;1.67;;;;;;;7.95;91.36;97019.10;1741982;81;21048;-82
2022/01/02 05:10:20;;;;;;;5.85;3.02;;;;;;;7.94;91.98;97011.49;1738806;81;21027;-82
2022/01/02 05:12:45;;;;;;;4.85;1.95;;;;;;;7.91;91.85;97008.73;1736444;81;22311;-83
2022/01/02 05:15:11;;;;;;;4.92;3.05;;;;;;;7.89;91.46;97009.84;1739387;81;20981;-82
2022/01/02 05:17:37;;;;;;;3.92;2.00;;;;;;;7.92;91.29;97006.47;1740106;81;21003;-83
2022/01/02 05:20:04;;;;;;;4.58;3.37;;;;;;;7.95;90.88;96987.23;1742965;81;21444;-83
2022/01/02 05:22:30;;;;;;;2.87;2.47;;;;;;;7.98;91.16;96979.20;1741452;81;21119;-82
2022/01/02 05:24:56;;;;;;;5.15;3.40;;;;;;;7.97;90.93;96971.91;1731833;81;21391;-82
2022/01/02 05:27:21;;;;;;;7.67;4.75;;;;;;;7.98;91.23;96966.26;1730700;81;20965;-82
2022/01/02 05:29:47;;;;;;;4.53;2.92;;;;;;;8.00;91.13;96955.27;1740637;81;21031;-82
2022/01/02 05:32:13;;;;;;;4.67;3.20;;;;;;;8.02;91.09;96945.58;1742519;81;21443;-82
2022/01/02 05:34:38;;;;;;;5.45;4.20;;;;;;;8.04;90.70;96944.45;1738212;81;21024;-82
2022/01/02 05:37:04;;;;;;;4.47;3.40;;;;;;;8.02;90.56;96933.45;1737987;81;21090;-82
2022/01/02 05:39:30;;;;;;;5.10;3.85;;;;;;;8.00;90.76;96926.80;1741107;81;21042;-82
2022/01/02 05:41:56;;;;;;;3.15;2.60;;;;;;;8.00;90.58;96921.63;1740294;81;21430;-82
2022/01/02 05:44:22;;;;;;;3.98;3.10;;;;;;;8.00;90.81;96926.32;1743102;81;21035;-82
2022/01/02 05:46:48;;;;;;;5.03;3.08;;;;;;;8.01;90.61;96919.37;1749225;81;21015;-81
2022/01/02 05:49:13;;;;;;;4.22;2.70;;;;;;;8.04;90.12;96916.47;1673734;84;21099;-81
2022/01/02 05:51:39;;;;;;;5.08;3.27;;;;;;;8.06;89.87;96917.13;1729490;81;20957;-81
2022/01/02 05:54:06;;;;;;;7.03;4.25;;;;;;;8.08;89.63;96899.66;1730462;81;21386;-81
2022/01/02 05:56:32;;;;;;;5.85;3.58;;;;;;;8.06;89.76;96890.77;1737984;81;21031;-81
2022/01/02 05:58:58;;;;;;;4.28;2.05;;;;;;;8.08;89.20;96894.48;1740255;81;20972;-81
2022/01/02 06:01:24;;;;;;;7.25;3.40;;;;;;;8.12;88.72;96889.33;1725175;81;20948;-81
2022/01/02 06:03:49;;;;;;;5.08;2.50;;;;;;;8.15;88.50;96888.23;1742860;81;20956;-81
2022/01/02 06:06:15;;;;;;;3.42;2.30;;;;;;;8.15;87.72;96881.28;1737782;81;21346;-81
2022/01/02 06:08:41;;;;;;;3.40;1.80;;;;;;;8.18;87.30;96882.26;1738424;81;21335;-81
2022/01/02 06:11:06;;;;;;;4.10;3.17;;;;;;;8.17;87.77;96868.98;1739228;81;21043;-81
2022/01/02 06:13:32;;;;;;;4.97;3.40;;;;;;;8.19;87.76;96871.42;1737281;82;20990;-81
2022/01/02 06:15:58;;;;;;;7.78;4.97;;;;;;;8.19;87.61;96871.42;1747254;81;20942;-81
2022/01/02 06:18:23;;;;;;;3.65;2.33;;;;;;;8.22;87.44;96869.81;1745049;81;20980;-81
2022/01/02 06:20:49;;;;;;;2.77;1.80;;;;;;;8.24;87.29;96868.69;1740200;82;20998;-81
2022/01/02 06:23:16;;;;;;;2.35;1.70;;;;;;;8.24;87.40;96866.09;1736892;82;21161;-81
2022/01/02 06:25:43;;;;;;;4.95;2.33;;;;;;;8.19;87.07;96860.58;1740860;82;21067;-81
2022/01/02 06:28:10;;;;;;;2.92;2.33;;;;;;;8.17;86.65;96859.12;1742608;81;21048;-81
2022/01/02 06:30:36;;;;;;;4.25;2.65;;;;;;;8.15;87.28;96861.05;1748691;82;20980;-81
2022/01/02 06:33:04;;;;;;;4.08;2.83;;;;;;;8.15;86.98;96869.63;1740089;82;21024;-81
2022/01/02 06:35:33;;;;;;;2.25;1.35;;;;;;;8.16;86.94;96860.89;1747522;81;20961;-81
2022/01/02 06:37:59;;;;;;;4.87;3.05;;;;;;;8.15;86.97;96861.86;1736544;82;20996;-81
2022/01/02 06:40:25;;;;;;;2.80;1.90;;;;;;;8.12;87.08;96861.66;1747392;82;21003;-81
2022/01/02 06:42:51;;;;;;;2.33;1.55;;;;;;;8.12;86.69;96853.09;1744140;82;21061;-81
2022/01/02 06:45:16;;;;;;;2.00;1.30;;;;;;;8.15;86.31;96847.63;1739167;82;21066;-81
2022/01/02 06:47:42;;;;;;;2.92;1.85;;;;;;;8.18;87.04;96841.33;1743102;82;21206;-81
2022/01/02 06:50:08;;;;;;;1.98;1.42;;;;;;;8.18;86.51;96830.48;1740030;82;20995;-81
2022/01/02 06:52:34;;;;;;;2.10;1.50;;;;;;;8.18;86.16;96826.60;1753321;81;21007;-81
2022/01/02 06:55:00;;;;;;;2.67;1.40;;;;;;;8.21;86.23;96812.53;1756505;81;20960;-81
2022/01/02 06:57:26;;;;;;;2.70;1.50;;;;;;;8.24;86.21;96792.80;1728203;81;20964;-81
2022/01/02 06:59:52;;;;;;;2.33;1.35;;;;;;;8.24;86.33;96787.14;1741521;81;21111;-81
2022/01/02 07:02:18;;;;;;;1.77;1.20;;;;;;;8.24;86.49;96787.63;1751113;81;21088;-80
2022/01/02 07:04:43;;;;;;;2.00;1.20;;;;;;;8.21;86.27;96790.05;1682676;85;21067;-81
2022/01/02 07:07:09;;;;;;;1.62;1.10;;;;;;;8.21;85.48;96778.88;1750945;81;21031;-81
2022/01/02 07:09:36;;;;;;;1.75;1.65;;;;;;;8.30;85.42;96778.76;1690562;85;21070;-81
2022/01/02 07:12:02;;;;;;;2.85;1.50;;;;;;;8.42;85.58;96768.92;1755116;81;20976;-81
2022/01/02 07:14:28;;;;;;;2.10;1.40;;;;;;;8.52;84.08;96777.37;1718698;81;21032;-81
2022/01/02 07:16:54;;;;;;;1.47;1.00;;;;;;;8.62;84.87;96778.05;1755142;81;21541;-81
2022/01/02 07:19:21;;;;;;;2.02;1.12;;;;;;;8.67;82.47;96764.13;1733388;81;21022;-81
2022/01/02 07:21:49;;;;;;;1.85;1.20;;;;;;;8.78;83.18;96759.59;1739766;82;21023;-81
2022/01/02 07:24:15;;;;;;;2.58;1.20;;;;;;;8.85;81.68;96754.10;1690039;85;20972;-81
2022/01/02 07:26:41;;;;;;;1.60;1.20;;;;;;;8.91;81.79;96745.18;1724558;83;21007;-81
2022/01/02 07:29:07;;;;;;;1.45;1.10;;;;;;;8.94;82.30;96737.56;1733351;81;21123;-81
2022/01/02 07:31:33;;;;;;;1.80;1.00;;;;;;;8.95;80.45;96737.42;1753890;81;21052;-81
2022/01/02 07:33:59;;;;;;;2.27;0.90;;;;;;;9.00;81.75;96736.44;1745930;81;21483;-81
2022/01/02 07:36:24;;;;;;;1.80;1.10;;;;;;;9.07;79.10;96725.41;1752537;81;21079;-81
2022/01/02 07:38:50;;;;;;;1.80;1.30;;;;;;;9.18;80.43;96723.30;1748092;81;21084;-81
2022/01/02 07:41:16;;;;;;;2.05;1.17;;;;;;;9.25;80.48;96719.55;1690908;85;21094;-81
2022/01/02 07:43:42;;;;;;;1.20;0.80;;;;;;;9.32;78.97;96723.12;1758082;81;21034;-81
2022/01/02 07:46:07;;;;;;;1.45;1.00;;;;;;;9.40;78.15;96710.12;1756192;81;21425;-81
2022/01/02 07:48:33;;;;;;;1.77;1.45;;;;;;;9.48;77.18;96716.59;1754438;81;21406;-81
2022/01/02 07:50:59;;;;;;;1.87;1.02;;;;;;;9.56;77.04;96722.23;1744251;81;20983;-81
2022/01/02 07:53:24;;;;;;;1.77;1.10;;;;;;;9.62;76.85;96714.61;1741063;81;21036;-81
2022/01/02 07:55:50;;;;;;;1.35;0.85;;;;;;;9.70;76.84;96703.88;1742626;81;20958;-81
2022/01/02 07:58:16;;;;;;;2.40;1.00;;;;;;;9.76;75.52;96694.94;1730228;82;21458;-81
2022/01/02 08:00:42;;;;;;;1.65;1.10;;;;;;;9.83;76.18;96684.19;1713722;82;20937;-81
2022/01/02 08:03:08;;;;;;;2.83;1.50;;;;;;;9.89;76.01;96680.91;1742337;82;21028;-81
2022/01/02 08:05:34;;;;;;;2.60;1.17;;;;;;;9.89;75.50;96675.72;1745111;82;21028;-81
2022/01/02 08:07:59;;;;;;;1.37;0.88;;;;;;;9.92;74.74;96670.67;1732310;81;21339;-81
2022/01/02 08:10:27;;;;;;;4.12;2.00;;;;;;;9.96;72.54;96657.69;1752750;82;21414;-81
2022/01/02 08:12:53;;;;;;;2.62;1.07;;;;;;;10.02;71.85;96652.30;1745067;82;21075;-81
2022/01/02 08:15:19;;;;;;;2.70;1.72;;;;;;;10.04;72.59;96649.84;1743481;82;20983;-81
2022/01/02 08:17:45;;;;;;;2.95;1.72;;;;;;;10.11;71.39;96655.17;1737108;82;21429;-81
2022/01/02 08:20:10;;;;;;;1.70;1.20;;;;;;;10.16;69.67;96651.56;1737461;81;21441;-81
2022/01/02 08:22:36;;;;;;;1.42;0.90;;;;;;;10.21;71.93;96649.28;1736029;81;21043;-81
2022/01/02 08:25:03;;;;;;;2.65;1.02;;;;;;;10.21;70.04;96634.51;1699619;84;21005;-82
2022/01/02 08:27:29;;;;;;;1.95;1.00;;;;;;;10.23;70.30;96648.61;1742123;82;20952;-81
2022/01/02 08:29:56;;;;;;;1.30;0.90;;;;;;;10.29;69.16;96638.05;1744707;82;21080;-82
2022/01/02 08:32:21;;;;;;;1.30;1.00;;;;;;;10.32;69.11;96639.80;1743992;82;21016;-81
2022/01/02 08:34:47;;;;;;;1.60;1.00;;;;;;;10.34;68.84;96652.61;1737150;82;21017;-81
2022/01/02 08:37:15;;;;;;;1.35;0.90;;;;;;;10.35;70.04;96665.91;1733121;81;21139;-81
2022/01/02 08:39:42;;;;;;;1.70;1.30;;;;;;;10.37;68.74;96666.55;1733482;82;21016;-81
2022/01/02 08:42:09;;;;;;;1.37;0.85;;;;;;;10.40;69.52;96650.61;1652717;86;21055;-81
2022/01/02 08:44:37;;;;;;;2.15;1.35;;;;;;;10.40;68.29;96649.31;1739960;82;21028;-81
2022/01/02 08:47:03;;;;;;;1.75;1.15;;;;;;;10.43;68.67;96652.39;1733315;82;21016;-81
2022/01/02 08:49:29;;;;;;;2.55;0.95;;;;;;;10.44;69.90;96655.30;1727930;82;21075;-81
2022/01/02 08:51:55;;;;;;;2.60;1.05;;;;;;;10.44;67.57;96656.60;1747758;81;20995;-82
2022/01/02 08:54:21;;;;;;;1.95;1.17;;;;;;;10.49;69.22;96647.78;1733695;81;21398;-81
2022/01/02 08:56:46;;;;;;;1.42;0.95;;;;;;;10.52;67.79;96645.33;1756217;81;20972;-81
2022/01/02 08:59:12;;;;;;;1.50;1.12;;;;;;;10.58;68.94;96649.84;1747904;81;21027;-82
2022/01/02 09:01:38;;;;;;;2.42;1.12;;;;;;;10.62;68.84;96636.81;1752939;81;20976;-82
2022/01/02 09:04:04;;;;;;;2.22;1.12;;;;;;;10.64;68.02;96636.14;1730197;81;21084;-81
2022/01/02 09:06:30;;;;;;;2.02;1.00;;;;;;;10.67;68.38;96633.18;1689791;85;21044;-82
2022/01/02 09:08:55;;;;;;;2.12;1.12;;;;;;;10.69;68.53;96633.81;1744555;81;20999;-82
2022/01/02 09:11:22;;;;;;;3.40;1.60;;;;;;;10.74;68.12;96626.31;1736948;81;21079;-82
2022/01/02 09:13:48;;;;;;;1.67;1.00;;;;;;;10.76;68.97;96635.23;1758124;81;20999;-81
2022/01/02 09:16:14;;;;;;;1.67;1.10;;;;;;;10.76;68.23;96632.63;1741618;81;21061;-81
2022/01/02 09:18:39;;;;;;;2.33;1.17;;;;;;;10.77;68.41;96629.85;1755456;81;21075;-81
2022/01/02 09:21:05;;;;;;;3.27;1.72;;;;;;;10.78;69.09;96626.27;1749357;81;21383;-81
2022/01/02 09:23:31;;;;;;;2.62;1.55;;;;;;;10.81;69.39;96630.30;1757207;81;21121;-82
2022/01/02 09:25:57;;;;;;;2.60;1.60;;;;;;;10.82;69.11;96631.91;1753755;81;21070;-81
2022/01/02 09:28:22;;;;;;;3.27;1.65;;;;;;;10.86;68.11;96631.06;1687481;84;21461;-81
2022/01/02 09:30:48;;;;;;;4.35;1.70;;;;;;;10.89;68.25;96634.59;1752913;81;21039;-81
2022/01/02 09:33:14;;;;;;;3.58;1.90;;;;;;;10.88;67.25;96632.50;1686075;85;21344;-81
2022/01/02 09:35:41;;;;;;;5.87;2.75;;;;;;;10.90;68.53;96628.41;1756185;81;21399;-81
2022/01/02 09:38:09;;;;;;;2.85;2.00;;;;;;;10.89;68.80;96625.01;1691347;85;21116;-81
2022/01/02 09:40:34;;;;;;;2.85;1.30;;;;;;;10.88;67.11;96625.19;1724096;83;21092;-81
2022/01/02 09:43:02;;;;;;;2.05;1.35;;;;;;;10.89;68.60;96619.81;1740126;81;21058;-82
2022/01/02 09:45:28;;;;;;;1.32;1.00;;;;;;;10.87;67.89;96620.48;1752885;81;21044;-81
2022/01/02 09:47:54;;;;;;;2.05;1.40;;;;;;;10.88;67.76;96622.59;1737633;81;21059;-82
2022/01/02 09:50:20;;;;;;;2.58;1.60;;;;;;;10.83;67.91;96623.94;1715541;81;21470;-81
2022/01/02 09:52:47;;;;;;;1.95;1.15;;;;;;;10.82;66.98;96624.92;1711806;81;20997;-81
2022/01/02 09:55:12;;;;;;;2.00;1.00;;;;;;;10.82;66.30;96632.72;1744232;81;21422;-81
2022/01/02 09:57:43;;;;;;;1.47;1.00;;;;;;;10.82;67.08;96633.21;1737362;81;21447;-81
2022/01/02 10:00:10;;;;;;;2.05;1.10;;;;;;;10.78;68.84;96629.36;1754260;81;20972;-81
2022/01/02 10:02:58;;;;;;;1.62;1.12;;;;;;;10.75;66.87;96619.33;1751037;81;22170;-81
2022/01/02 10:05:26;;;;;;;1.52;1.27;;;;;;;10.76;67.61;96610.54;1710638;82;20994;-81
2022/01/02 10:07:52;;;;;;;2.77;1.20;;;;;;;10.77;69.09;96616.86;1742538;81;21011;-81
2022/01/02 10:10:18;;;;;;;1.98;1.30;;;;;;;10.80;67.94;96618.30;1744086;81;21262;-81
2022/01/02 10:12:44;;;;;;;2.42;1.40;;;;;;;10.85;69.23;96615.16;1727146;82;21365;-82
2022/01/02 10:15:23;;;;;;;2.58;1.42;;;;;;;10.88;68.89;96619.98;1749749;81;21058;-81
2022/01/02 10:18:08;;;;;;;1.85;1.17;;;;;;;10.96;68.55;96617.33;1739891;81;21354;-81
2022/01/02 10:20:44;;;;;;;9.65;4.37;;;;;;;11.04;68.85;96599.02;1748872;81;21079;-82
2022/01/02 10:23:16;;;;;;;3.95;1.95;;;;;;;11.14;68.75;96609.98;1739688;81;21705;-81
2022/01/02 10:25:55;;;;;;;3.42;1.32;;;;;;;11.22;67.31;96612.97;1691408;85;21019;-81
2022/01/02 10:28:35;;;;;;;3.00;1.57;;;;;;;11.27;66.71;96604.95;1734303;81;21004;-82
2022/01/02 10:31:10;;;;;;;9.80;4.22;;;;;;;11.32;68.54;96606.52;1737222;81;21003;-82
2022/01/02 10:33:57;;;;;;;2.30;1.52;;;;;;;11.36;68.34;96609.06;1750651;81;22203;-82
2022/01/02 10:36:38;;;;;;;5.90;2.55;;;;;;;11.39;69.51;96615.23;1755113;81;21009;-81
2022/01/02 10:39:15;;;;;;;4.90;2.30;;;;;;;11.37;68.88;96611.17;1757870;81;21130;-81
2022/01/02 10:41:45;;;;;;;3.12;2.20;;;;;;;11.36;68.80;96612.16;1756576;81;21038;-81
2022/01/02 10:44:26;;;;;;;4.05;2.33;;;;;;;11.32;68.61;96613.52;1738851;81;21465;-82
2022/01/02 10:47:25;;;;;;;2.83;1.95;;;;;;;11.30;67.88;96617.59;1747409;81;21012;-82
2022/01/02 10:50:06;;;;;;;4.90;2.00;;;;;;;11.25;68.63;96606.94;1682799;85;21083;-81
2022/01/02 10:52:41;;;;;;;2.25;1.82;;;;;;;11.23;69.13;96604.20;1747460;81;21403;-82
2022/01/02 10:55:25;;;;;;;4.50;2.52;;;;;;;11.20;68.43;96596.24;1746638;81;21144;-81
2022/01/02 10:57:53;;;;;;;2.60;1.92;;;;;;;11.21;69.04;96600.95;1688009;85;21402;-81
2022/01/02 11:00:23;;;;;;;7.33;3.00;;;;;;;11.24;69.44;96594.92;1751453;81;20973;-81
2022/01/02 11:02:49;;;;;;;26.85;9.43;;;;;;;11.32;68.85;96595.30;1756999;81;21035;-81
2022/01/02 11:05:17;;;;;;;4.72;2.65;;;;;;;11.44;69.13;96591.27;1716119;82;21042;-81
2022/01/02 11:07:58;;;;;;;3.22;2.00;;;;;;;11.54;67.41;96585.26;1691278;85;21003;-81
2022/01/02 11:10:24;;;;;;;7.35;6.30;;;;;;;11.64;67.61;96577.17;1718444;81;20948;-82
2022/01/02 11:12:51;;;;;;;7.85;3.92;;;;;;;11.73;68.62;96575.59;1749731;81;20973;-82
2022/01/02 11:15:19;;;;;;;6.70;2.90;;;;;;;11.80;67.46;96570.47;1739804;81;21031;-82
2022/01/02 11:17:45;;;;;;;7.05;3.25;;;;;;;11.87;66.95;96570.03;1683567;85;21031;-81
2022/01/02 11:20:17;;;;;;;4.65;2.47;;;;;;;11.93;67.15;96559.39;1748244;81;21480;-82
2022/01/02 11:23:05;;;;;;;3.17;1.98;;;;;;;11.96;67.22;96543.39;1747983;81;21047;-81
2022/01/02 11:26:01;;;;;;;2.55;1.75;;;;;;;11.93;66.26;96551.58;1659804;85;21042;-81
2022/01/02 11:28:40;;;;;;;9.35;3.60;;;;;;;11.88;65.47;96539.13;1716564;83;21034;-81
2022/01/02 11:31:08;;;;;;;12.15;4.08;;;;;;;11.87;66.72;96542.70;1747635;81;21075;-81
2022/01/02 11:33:39;;;;;;;4.05;2.00;;;;;;;11.92;66.51;96533.85;1751867;81;21003;-82
2022/01/02 11:36:30;;;;;;;5.55;3.15;;;;;;;12.00;65.89;96525.09;1753450;81;21008;-82
2022/01/02 11:39:07;;;;;;;5.17;3.67;;;;;;;12.10;66.82;96522.19;1747937;81;21146;-83
2022/01/02 11:41:51;;;;;;;14.18;5.25;;;;;;;12.19;67.16;96515.83;1749726;81;20960;-83
2022/01/02 11:44:20;;;;;;;4.78;2.70;;;;;;;12.28;65.49;96517.32;1758775;81;21429;-82
2022/01/02 11:46:56;;;;;;;13.60;5.53;;;;;;;12.30;64.95;96512.72;1745712;81;21398;-83
2022/01/02 11:49:27;;;;;;;8.50;6.17;;;;;;;12.36;64.69;96498.12;1759981;81;21082;-83